Time;durP1;ratioP1;P1;durP2;ratioP2;P2;SDS_P1;SDS_P2;PMS_P1;PMS_P2;Temp;Humidity;BMP_temperature;BMP_pressure;BME280_temperature;BME280_humidity;BME280_pressure;Samples;Min_cycle;Max_cycle;Signal;HPM_P1;HPM_P2
2023/04/13 00:00:42;;;;;;;3.30;1.90;;;;;;;11.78;86.97;97962.68;77940;1300;3026994;-60
2023/04/13 00:03:11;;;;;;;4.30;2.10;;;;;;;11.74;86.23;97960.69;79208;1296;3013026;-60
2023/04/13 00:05:38;;;;;;;4.40;2.00;;;;;;;11.37;86.76;97963.61;79231;1295;3011594;-61
2023/04/13 00:08:10;;;;;;;5.50;2.50;;;;;;;11.03;88.11;97961.46;78036;1300;3053175;-61
2023/04/13 00:10:40;;;;;;;3.20;2.30;;;;;;;10.98;88.76;97954.20;79462;1298;3013147;-60
2023/04/13 00:13:09;;;;;;;4.90;2.30;;;;;;;10.80;89.79;97960.65;78900;1296;3011478;-61
2023/04/13 00:15:40;;;;;;;4.10;1.90;;;;;;;10.97;89.38;97962.67;79513;1295;3013198;-62
2023/04/13 00:18:13;;;;;;;2.10;1.60;;;;;;;11.33;86.68;97962.39;78183;1298;3050059;-61
2023/04/13 00:20:42;;;;;;;3.40;2.00;;;;;;;11.33;85.82;97967.81;79435;1294;3013726;-61
2023/04/13 00:23:09;;;;;;;4.20;2.50;;;;;;;11.09;86.95;97963.05;79405;1294;3011682;-61
2023/04/13 00:25:38;;;;;;;3.90;2.20;;;;;;;11.03;87.54;97962.13;78415;1298;3052326;-59
2023/04/13 00:28:05;;;;;;;3.00;2.00;;;;;;;10.98;87.46;97958.39;79489;1295;3018548;-61
2023/04/13 00:30:32;;;;;;;4.50;2.70;;;;;;;10.79;87.41;97965.93;79225;1299;3011596;-61
2023/04/13 00:33:01;;;;;;;5.30;2.10;;;;;;;10.72;87.96;97958.52;78293;1298;3028250;-61
2023/04/13 00:35:29;;;;;;;3.10;1.60;;;;;;;11.04;87.31;97960.10;79559;1298;3013649;-60
2023/04/13 00:38:01;;;;;;;3.10;1.40;;;;;;;11.63;84.54;97951.83;78273;1298;3028663;-60
2023/04/13 00:40:36;;;;;;;2.40;1.50;;;;;;;11.83;82.93;97955.30;78210;1308;3051897;-62
2023/04/13 00:43:04;;;;;;;3.50;1.90;;;;;;;11.68;82.53;97958.58;79431;1298;3013203;-61
2023/04/13 00:45:37;;;;;;;6.10;2.20;;;;;;;11.42;83.09;97965.79;78857;1296;3011370;-61
2023/04/13 00:48:11;;;;;;;3.00;1.90;;;;;;;11.08;84.19;97965.55;78159;1298;3051577;-60
2023/04/13 00:50:39;;;;;;;3.30;1.80;;;;;;;10.91;85.12;97966.66;79345;1295;3013656;-60
2023/04/13 00:53:06;;;;;;;3.80;1.30;;;;;;;10.68;86.68;97964.59;79236;1294;3011989;-60
2023/04/13 00:55:37;;;;;;;2.80;1.60;;;;;;;11.01;85.70;97957.98;78067;1299;3050355;-59
2023/04/13 00:58:04;;;;;;;3.20;1.70;;;;;;;11.43;83.56;97948.17;79289;1298;3013543;-60
2023/04/13 01:00:37;;;;;;;3.20;1.90;;;;;;;11.58;82.95;97947.90;78904;1298;3011639;-60
2023/04/13 01:03:05;;;;;;;5.10;3.00;;;;;;;11.53;82.62;97950.99;79240;1299;3013431;-60
2023/04/13 01:06:05;;;;;;;4.60;2.40;;;;;;;11.30;83.55;97957.41;78162;1298;3049953;-60
2023/04/13 01:08:38;;;;;;;5.10;2.40;;;;;;;11.02;84.72;97963.42;78206;1298;3056527;-61
2023/04/13 01:11:17;;;;;;;6.20;2.10;;;;;;;10.81;85.21;97967.88;79271;1295;3012228;-59
2023/04/13 01:14:01;;;;;;;2.80;0.90;;;;;;;10.71;85.71;97969.08;78018;1295;3053137;-59
2023/04/13 01:16:31;;;;;;;5.10;1.50;;;;;;;11.14;84.35;97957.52;78087;1298;3050354;-60
2023/04/13 01:18:59;;;;;;;3.70;1.30;;;;;;;11.56;82.39;97949.14;79474;1296;3011574;-59
2023/04/13 01:21:29;;;;;;;3.10;1.90;;;;;;;11.72;81.62;97951.06;78203;1298;3051068;-61
2023/04/13 01:24:19;;;;;;;10.90;2.00;;;;;;;11.49;82.02;97950.27;79302;1294;3014952;-61
2023/04/13 01:26:58;;;;;;;2.40;1.60;;;;;;;11.04;82.93;97960.30;78196;1298;3056816;-60
2023/04/13 01:29:26;;;;;;;2.80;1.30;;;;;;;10.75;83.73;97965.11;78029;1295;3049346;-62
2023/04/13 01:31:53;;;;;;;2.60;1.60;;;;;;;10.68;84.71;97963.53;79222;1298;3013261;-61
2023/04/13 01:34:20;;;;;;;1.70;1.00;;;;;;;10.45;84.97;97967.09;79205;1300;3011626;-60
2023/04/13 01:36:49;;;;;;;1.60;1.10;;;;;;;10.74;84.16;97966.70;78274;1295;3052364;-62
2023/04/13 01:39:18;;;;;;;1.40;0.90;;;;;;;11.01;81.99;97966.33;79403;1295;3014544;-60
2023/04/13 01:41:48;;;;;;;3.00;1.30;;;;;;;11.23;81.30;97962.17;78851;1295;3011526;-60
2023/04/13 01:44:15;;;;;;;2.80;1.40;;;;;;;11.26;81.08;97969.64;79237;1295;3013442;-59
2023/04/13 01:46:44;;;;;;;2.40;1.50;;;;;;;11.01;81.31;97975.28;79292;1299;3013595;-60
2023/04/13 01:49:36;;;;;;;3.50;1.50;;;;;;;10.64;82.66;97975.27;78223;1298;3050061;-60
2023/04/13 01:52:13;;;;;;;2.60;1.90;;;;;;;10.28;84.65;97973.05;78130;1298;3052680;-60
2023/04/13 01:54:40;;;;;;;1.80;1.10;;;;;;;10.04;85.73;97971.33;79328;1300;3012923;-60
2023/04/13 01:57:09;;;;;;;0.80;0.60;;;;;;;9.99;86.25;97968.36;79197;1300;3011656;-59
2023/04/13 01:59:37;;;;;;;1.20;0.90;;;;;;;10.50;85.11;97967.67;78155;1296;3056892;-58
2023/04/13 02:02:05;;;;;;;1.50;1.00;;;;;;;11.07;82.82;97959.02;79259;1296;3013847;-60
2023/04/13 02:04:35;;;;;;;1.40;1.00;;;;;;;10.90;82.54;97962.41;78731;1298;3011982;-60
2023/04/13 02:07:03;;;;;;;3.10;1.50;;;;;;;10.50;84.21;97958.96;79177;1301;3013414;-61
2023/04/13 02:09:35;;;;;;;3.10;1.50;;;;;;;10.22;85.96;97959.30;78000;1300;3052669;-61
2023/04/13 02:12:03;;;;;;;4.20;1.50;;;;;;;9.97;87.41;97968.52;79313;1298;3015606;-61
2023/04/13 02:14:35;;;;;;;4.10;1.70;;;;;;;9.80;88.12;97969.06;78087;1295;3056137;-60
2023/04/13 02:17:05;;;;;;;3.40;1.20;;;;;;;9.83;88.41;97970.57;79261;1301;3011635;-60
2023/04/13 02:19:34;;;;;;;1.70;1.10;;;;;;;10.22;86.93;97971.10;78074;1298;3051798;-60
2023/04/13 02:22:09;;;;;;;2.30;1.30;;;;;;;10.34;86.03;97964.80;78830;1295;3011490;-61
2023/04/13 02:24:42;;;;;;;3.40;1.90;;;;;;;10.51;85.15;97963.21;79434;1296;3011915;-61
2023/04/13 02:27:11;;;;;;;2.80;1.60;;;;;;;10.50;85.36;97968.94;78128;1300;3052325;-59
2023/04/13 02:29:37;;;;;;;2.70;1.50;;;;;;;10.35;85.50;97976.29;79511;1298;3013073;-60
2023/04/13 02:32:09;;;;;;;3.90;1.70;;;;;;;10.16;85.89;97984.50;78180;1298;3050208;-59
2023/04/13 02:34:38;;;;;;;3.30;1.80;;;;;;;9.88;87.01;97981.50;79492;1295;3013134;-61
2023/04/13 02:37:06;;;;;;;3.90;1.40;;;;;;;9.69;88.36;97980.80;79424;1295;3011786;-60
2023/04/13 02:39:41;;;;;;;18.10;4.60;;;;;;;10.10;87.03;97978.52;78292;1298;3049630;-61
2023/04/13 02:42:11;;;;;;;23.90;5.40;;;;;;;10.32;85.42;97981.23;79446;1298;3011625;-62
2023/04/13 02:44:39;;;;;;;28.20;8.30;;;;;;;10.33;84.65;97981.65;78079;1296;3025974;-61
2023/04/13 02:47:16;;;;;;;35.30;9.00;;;;;;;9.99;85.68;97975.52;78890;1295;3013189;-61
2023/04/13 02:49:45;;;;;;;21.20;6.30;;;;;;;10.04;85.84;97973.34;79305;1296;3016295;-61
2023/04/13 02:52:28;;;;;;;15.50;4.30;;;;;;;9.86;86.34;97966.79;78051;1301;3057880;-59
2023/04/13 02:55:05;;;;;;;7.70;3.20;;;;;;;9.72;86.91;97964.13;78132;1298;3050247;-60
2023/04/13 02:57:44;;;;;;;2.80;1.60;;;;;;;9.31;89.04;97957.75;78134;1295;3053305;-60
2023/04/13 03:00:14;;;;;;;2.50;1.50;;;;;;;9.51;89.30;97953.02;79402;1298;3013333;-60
2023/04/13 03:03:10;;;;;;;1.70;1.20;;;;;;;10.04;87.31;97957.34;78067;1296;3053164;-60
2023/04/13 03:05:42;;;;;;;3.60;1.60;;;;;;;9.94;86.96;97964.27;79426;1298;3012160;-61
2023/04/13 03:08:13;;;;;;;3.10;1.70;;;;;;;10.10;86.68;97959.63;78219;1296;3050299;-60
2023/04/13 03:10:51;;;;;;;1.80;1.30;;;;;;;9.97;86.72;97972.42;78240;1298;3056951;-59
2023/04/13 03:13:18;;;;;;;2.50;1.50;;;;;;;9.80;87.65;97978.34;79442;1295;3013941;-61
2023/04/13 03:15:45;;;;;;;1.00;0.80;;;;;;;9.71;88.30;97979.22;79408;1296;3011731;-61
2023/04/13 03:18:15;;;;;;;1.10;0.80;;;;;;;10.12;87.66;97974.17;78218;1300;3052351;-61
2023/04/13 03:20:43;;;;;;;2.00;1.30;;;;;;;10.53;85.05;97976.58;79504;1299;3011579;-58
2023/04/13 03:23:12;;;;;;;6.90;2.20;;;;;;;10.48;84.80;97978.23;78751;1295;3011772;-61
2023/04/13 03:25:43;;;;;;;3.30;2.20;;;;;;;10.28;85.37;97980.88;79277;1300;3011705;-60
2023/04/13 03:28:11;;;;;;;4.80;2.80;;;;;;;10.13;86.13;97981.05;78114;1295;3025901;-59
2023/04/13 03:30:41;;;;;;;6.10;3.30;;;;;;;9.94;87.19;97976.34;79376;1299;3013370;-61
2023/04/13 03:33:17;;;;;;;5.30;3.00;;;;;;;10.02;87.80;97977.08;78171;1296;3053813;-60
2023/04/13 03:35:44;;;;;;;3.30;1.50;;;;;;;10.05;87.65;97981.66;79276;1301;3013469;-61
2023/04/13 03:38:18;;;;;;;2.40;1.40;;;;;;;10.54;85.80;97989.23;77983;1300;3053284;-59
2023/04/13 03:40:46;;;;;;;2.00;1.50;;;;;;;10.95;83.78;97989.70;79265;1300;3013187;-59
2023/04/13 03:43:13;;;;;;;2.60;1.80;;;;;;;10.82;83.46;97991.77;79283;1295;3011889;-61
2023/04/13 03:45:47;;;;;;;3.50;2.50;;;;;;;10.71;83.87;97993.80;78045;1300;3049633;-61
2023/04/13 03:48:15;;;;;;;3.50;2.00;;;;;;;10.49;83.94;97990.57;79310;1295;3013127;-59
2023/04/13 03:50:42;;;;;;;2.80;2.30;;;;;;;10.27;85.15;97990.95;79219;1298;3011897;-60
2023/04/13 03:53:10;;;;;;;5.70;2.30;;;;;;;10.00;86.70;97998.94;78007;1301;3052815;-60
2023/04/13 03:55:38;;;;;;;1.90;1.60;;;;;;;9.89;87.79;98001.52;79317;1295;3013678;-61
2023/04/13 03:58:11;;;;;;;2.80;1.40;;;;;;;10.48;86.56;98005.83;78090;1297;3056467;-61
2023/04/13 04:00:38;;;;;;;3.40;1.80;;;;;;;10.91;84.00;98012.27;79351;1295;3015917;-61
2023/04/13 04:03:11;;;;;;;7.70;2.90;;;;;;;10.85;83.87;98013.97;78064;1301;3050052;-60
2023/04/13 04:05:49;;;;;;;5.60;2.90;;;;;;;10.60;84.52;98012.53;78020;1301;3052225;-61
2023/04/13 04:08:17;;;;;;;6.10;3.30;;;;;;;10.52;85.19;98008.13;79330;1300;3011535;-61
2023/04/13 04:10:48;;;;;;;10.00;4.40;;;;;;;10.44;85.98;98010.39;78779;1295;3011289;-61
2023/04/13 04:13:16;;;;;;;7.40;4.40;;;;;;;10.28;86.36;98021.61;79266;1295;3013275;-61
2023/04/13 04:15:55;;;;;;;7.90;3.20;;;;;;;10.15;87.29;98020.44;77964;1295;3055824;-61
2023/04/13 04:18:24;;;;;;;10.50;4.10;;;;;;;10.69;85.93;98022.48;79199;1297;3013126;-61
2023/04/13 04:20:54;;;;;;;13.70;5.30;;;;;;;11.10;83.92;98026.92;78774;1300;3014032;-62
2023/04/13 04:23:21;;;;;;;8.30;4.10;;;;;;;11.16;82.80;98028.36;79250;1296;3013770;-60
2023/04/13 04:25:58;;;;;;;6.60;3.80;;;;;;;10.86;83.39;98028.77;78070;1299;3053668;-61
2023/04/13 04:28:37;;;;;;;6.90;3.70;;;;;;;10.75;83.95;98024.78;79189;1297;3011688;-61
2023/04/13 04:31:09;;;;;;;4.50;3.20;;;;;;;10.80;83.83;98028.77;77934;1300;3051409;-61
2023/04/13 04:33:40;;;;;;;4.10;2.00;;;;;;;10.72;82.72;98029.79;79296;1300;3011834;-61
2023/04/13 04:36:09;;;;;;;4.40;1.90;;;;;;;10.69;82.18;98036.48;78213;1297;3048757;-61
2023/04/13 04:38:39;;;;;;;2.10;1.40;;;;;;;11.11;81.80;98040.70;79565;1295;3011559;-62
2023/04/13 04:41:08;;;;;;;5.00;2.60;;;;;;;11.43;80.03;98044.56;78033;1298;3050176;-61
2023/04/13 04:43:36;;;;;;;7.40;3.30;;;;;;;11.48;80.44;98032.98;79335;1299;3013713;-62
2023/04/13 04:46:05;;;;;;;5.00;3.00;;;;;;;11.22;80.74;98035.20;79319;1295;3013167;-62
2023/04/13 04:48:36;;;;;;;4.20;1.60;;;;;;;11.06;81.05;98037.78;77950;1298;3051708;-60
2023/04/13 04:51:07;;;;;;;6.00;2.00;;;;;;;10.96;80.94;98040.02;79243;1294;3013089;-62
2023/04/13 04:53:35;;;;;;;3.80;2.20;;;;;;;10.82;81.39;98039.06;78094;1295;3050098;-60
2023/04/13 04:56:04;;;;;;;4.00;2.10;;;;;;;10.76;82.35;98033.64;79251;1295;3012794;-60
2023/04/13 04:58:43;;;;;;;3.10;1.50;;;;;;;10.84;82.03;98031.05;78057;1298;3050272;-62
2023/04/13 05:01:10;;;;;;;2.90;1.50;;;;;;;11.40;80.23;98028.95;79235;1300;3013044;-62
2023/04/13 05:03:37;;;;;;;5.10;2.50;;;;;;;11.80;78.62;98030.02;79214;1301;3011391;-62
2023/04/13 05:06:19;;;;;;;6.30;3.80;;;;;;;12.00;77.78;98033.64;78047;1296;3051664;-61
2023/04/13 05:08:49;;;;;;;8.40;4.10;;;;;;;11.88;77.79;98035.43;79320;1300;3011170;-62
2023/04/13 05:11:19;;;;;;;7.60;4.10;;;;;;;11.72;78.02;98034.02;78084;1301;3049807;-60
2023/04/13 05:13:46;;;;;;;7.00;2.70;;;;;;;11.59;78.20;98027.59;79401;1295;3011273;-62
2023/04/13 05:16:18;;;;;;;4.00;2.40;;;;;;;11.44;78.53;98028.80;78230;1299;3048887;-63
2023/04/13 05:18:46;;;;;;;4.50;2.60;;;;;;;11.37;79.16;98042.34;79475;1300;3013561;-62
2023/04/13 05:21:35;;;;;;;5.50;2.80;;;;;;;11.26;79.64;98047.61;77810;1296;3069583;-61
2023/04/13 05:24:03;;;;;;;3.40;2.10;;;;;;;11.16;80.84;98052.52;79317;1295;3013183;-61
2023/04/13 05:26:33;;;;;;;4.60;2.10;;;;;;;11.66;79.73;98048.91;78642;1295;3011701;-65
2023/04/13 05:29:00;;;;;;;4.20;2.40;;;;;;;12.24;77.10;98045.56;79257;1295;3013579;-63
2023/04/13 05:31:31;;;;;;;4.90;2.70;;;;;;;12.37;76.38;98041.21;78068;1300;3050668;-62
2023/04/13 05:33:59;;;;;;;4.90;3.00;;;;;;;12.26;76.89;98038.73;79336;1301;3013135;-60
2023/04/13 05:36:27;;;;;;;7.30;3.30;;;;;;;12.06;77.02;98031.38;79294;1301;3011576;-62
2023/04/13 05:39:00;;;;;;;6.20;3.70;;;;;;;11.88;77.59;98034.36;78000;1295;3051639;-60
2023/04/13 05:41:27;;;;;;;5.40;3.40;;;;;;;11.67;78.29;98036.39;79312;1300;3011405;-62
2023/04/13 05:43:56;;;;;;;5.80;3.50;;;;;;;11.53;79.51;98030.42;78058;1300;3050000;-61
2023/04/13 05:46:23;;;;;;;4.90;3.40;;;;;;;11.55;79.48;98027.27;79435;1295;3014440;-60
2023/04/13 05:48:50;;;;;;;3.40;1.70;;;;;;;11.46;79.49;98021.44;79165;1295;3011577;-61
2023/04/13 05:51:20;;;;;;;3.40;2.20;;;;;;;11.96;78.17;98015.58;78039;1300;3052292;-62
2023/04/13 05:53:47;;;;;;;8.80;3.90;;;;;;;12.39;75.96;98010.85;79260;1295;3013305;-61
2023/04/13 05:56:13;;;;;;;8.30;4.20;;;;;;;12.48;74.73;98002.56;79226;1295;3011476;-62
2023/04/13 05:58:43;;;;;;;7.80;4.30;;;;;;;12.46;74.96;97999.05;77998;1300;3049720;-60
2023/04/13 06:01:24;;;;;;;9.60;4.50;;;;;;;12.40;74.94;97993.39;78337;1295;3053743;-61
2023/04/13 06:03:54;;;;;;;9.00;4.80;;;;;;;12.38;75.37;97994.48;79374;1298;3011482;-61
2023/04/13 06:06:22;;;;;;;10.00;5.30;;;;;;;12.24;75.44;97991.16;78143;1301;3026983;-60
2023/04/13 06:08:49;;;;;;;8.40;4.40;;;;;;;12.05;75.95;97990.82;79288;1300;3013818;-61
2023/04/13 06:11:16;;;;;;;10.60;5.30;;;;;;;12.04;75.95;97993.52;79396;1296;3011673;-62
2023/04/13 06:13:47;;;;;;;7.20;4.50;;;;;;;11.81;77.40;98002.56;78002;1296;3057639;-61
2023/04/13 06:16:14;;;;;;;6.90;4.30;;;;;;;11.66;77.51;98005.76;79408;1295;3013298;-61
2023/04/13 06:18:41;;;;;;;4.50;2.70;;;;;;;11.67;77.97;98007.64;79565;1295;3011908;-63
2023/04/13 06:21:15;;;;;;;6.30;3.50;;;;;;;12.20;76.48;98009.77;78044;1301;3051804;-61
2023/04/13 06:23:43;;;;;;;4.30;3.40;;;;;;;12.81;74.13;98008.60;79497;1300;3013705;-61
2023/04/13 06:26:18;;;;;;;6.10;3.70;;;;;;;12.97;73.12;98008.69;77946;1296;3051509;-60
2023/04/13 06:28:54;;;;;;;5.10;3.40;;;;;;;12.91;73.44;98014.16;78025;1295;3055109;-60
2023/04/13 06:31:22;;;;;;;4.60;2.80;;;;;;;13.01;72.99;98011.67;79217;1295;3013246;-62
2023/04/13 06:33:49;;;;;;;5.20;2.90;;;;;;;12.80;73.27;98013.08;79255;1295;3011342;-60
2023/04/13 06:36:23;;;;;;;3.80;2.30;;;;;;;12.59;73.96;98017.15;78010;1301;3054400;-61
2023/04/13 06:38:51;;;;;;;3.60;2.20;;;;;;;12.47;74.00;98022.63;79342;1297;3013390;-61
2023/04/13 06:41:18;;;;;;;3.60;2.40;;;;;;;12.48;74.28;98025.41;79279;1295;3011499;-60
2023/04/13 06:43:47;;;;;;;3.10;2.60;;;;;;;12.41;74.87;98027.20;78074;1298;3056427;-62
2023/04/13 06:46:33;;;;;;;3.00;2.20;;;;;;;12.40;75.06;98040.50;78072;1301;3050113;-63
2023/04/13 06:49:10;;;;;;;3.20;2.50;;;;;;;12.40;74.84;98047.15;78116;1295;3052968;-61
2023/04/13 06:51:38;;;;;;;1.50;1.40;;;;;;;12.33;74.96;98049.14;79359;1295;3011341;-60
2023/04/13 06:54:08;;;;;;;2.40;1.70;;;;;;;12.84;74.13;98053.33;78791;1299;3012958;-61
2023/04/13 06:56:39;;;;;;;4.80;2.00;;;;;;;13.23;72.55;98054.64;79309;1295;3011682;-61
2023/04/13 06:59:08;;;;;;;3.20;2.30;;;;;;;13.29;72.21;98057.05;78118;1301;3069682;-61
2023/04/13 07:01:35;;;;;;;3.20;2.00;;;;;;;13.25;72.49;98060.98;79295;1295;3019194;-60
2023/04/13 07:04:08;;;;;;;3.30;2.20;;;;;;;13.07;73.25;98068.09;78117;1301;3049640;-62
2023/04/13 07:06:35;;;;;;;2.30;1.90;;;;;;;13.07;73.03;98067.92;79344;1300;3013336;-60
2023/04/13 07:09:02;;;;;;;2.40;1.70;;;;;;;12.96;73.65;98070.34;79320;1301;3011444;-61
2023/04/13 07:11:39;;;;;;;3.70;1.80;;;;;;;12.61;74.35;98068.41;78121;1301;3053841;-61
2023/04/13 07:14:08;;;;;;;3.10;1.50;;;;;;;12.29;75.60;98069.22;79453;1301;3013399;-62
2023/04/13 07:16:37;;;;;;;3.40;2.10;;;;;;;12.21;75.83;98068.30;78138;1298;3025873;-63
2023/04/13 07:19:03;;;;;;;2.50;1.80;;;;;;;12.20;76.26;98064.41;79294;1295;3013655;-61
2023/04/13 07:21:32;;;;;;;4.10;2.10;;;;;;;12.08;77.03;98066.80;79195;1301;3011792;-60
2023/04/13 07:24:05;;;;;;;2.20;1.50;;;;;;;11.90;78.04;98070.51;78153;1301;3050417;-62
2023/04/13 07:26:34;;;;;;;2.60;1.50;;;;;;;12.26;76.95;98071.43;79484;1301;3013035;-62
2023/04/13 07:29:03;;;;;;;3.60;1.40;;;;;;;12.83;74.78;98073.11;78927;1295;3011826;-61
2023/04/13 07:31:34;;;;;;;7.40;1.90;;;;;;;12.92;74.26;98074.20;79312;1295;3011828;-59
2023/04/13 07:34:05;;;;;;;6.70;2.10;;;;;;;12.76;74.96;98073.92;78023;1296;3050175;-61
2023/04/13 07:36:35;;;;;;;4.20;2.40;;;;;;;12.56;75.95;98074.87;79398;1295;3011683;-61
2023/04/13 07:39:08;;;;;;;5.00;2.10;;;;;;;12.56;75.72;98072.23;78119;1301;3048734;-62
2023/04/13 07:41:36;;;;;;;6.00;2.60;;;;;;;12.46;75.65;98074.65;79377;1295;3013597;-61
2023/04/13 07:44:06;;;;;;;3.90;2.80;;;;;;;12.27;76.11;98084.84;78753;1298;3011654;-61
2023/04/13 07:46:33;;;;;;;3.80;2.30;;;;;;;11.79;78.60;98091.47;79280;1301;3021358;-61
2023/04/13 07:49:01;;;;;;;5.60;2.10;;;;;;;11.65;79.70;98089.17;79313;1295;3011748;-59
2023/04/13 07:51:33;;;;;;;1.80;1.30;;;;;;;11.51;80.35;98088.24;78146;1299;3051908;-60
2023/04/13 07:54:01;;;;;;;1.60;1.20;;;;;;;11.89;79.00;98082.86;79482;1298;3011782;-60
2023/04/13 07:56:30;;;;;;;3.30;1.60;;;;;;;12.55;77.10;98076.81;78309;1295;3027134;-66
2023/04/13 07:58:57;;;;;;;2.90;1.50;;;;;;;12.60;76.35;98083.27;79358;1296;3013544;-61
2023/04/13 08:01:24;;;;;;;2.90;2.10;;;;;;;12.55;76.28;98085.88;79339;1300;3011706;-60
2023/04/13 08:03:52;;;;;;;3.50;2.60;;;;;;;12.59;76.27;98086.38;78023;1301;3052134;-61
2023/04/13 08:06:28;;;;;;;5.40;3.30;;;;;;;12.35;77.04;98079.75;78813;1301;3011725;-60
2023/04/13 08:08:55;;;;;;;6.50;3.70;;;;;;;11.95;79.25;98077.52;79218;1301;3013653;-62
2023/04/13 08:11:23;;;;;;;6.60;3.90;;;;;;;11.71;80.60;98079.16;79335;1296;3012273;-62
2023/04/13 08:13:56;;;;;;;9.00;3.70;;;;;;;11.69;80.61;98083.23;78131;1299;3050187;-61
2023/04/13 08:16:23;;;;;;;4.90;2.50;;;;;;;11.60;80.42;98089.75;79208;1295;3013120;-61
2023/04/13 08:18:51;;;;;;;3.90;2.90;;;;;;;11.88;80.17;98094.94;79362;1296;3011629;-61
2023/04/13 08:21:20;;;;;;;5.10;2.80;;;;;;;12.27;78.53;98091.27;78133;1300;3052517;-61
2023/04/13 08:23:48;;;;;;;9.20;3.40;;;;;;;12.43;77.90;98080.05;79198;1295;3013143;-61
2023/04/13 08:26:18;;;;;;;5.20;3.60;;;;;;;12.36;77.60;98079.13;78842;1296;3013858;-61
2023/04/13 08:28:48;;;;;;;6.50;3.90;;;;;;;12.17;78.99;98083.56;79331;1295;3013895;-58
2023/04/13 08:31:18;;;;;;;9.10;3.90;;;;;;;12.04;79.15;98089.13;78384;1298;3053084;-59
2023/04/13 08:33:54;;;;;;;11.10;4.30;;;;;;;11.88;79.57;98082.26;78469;1301;3048918;-60
2023/04/13 08:36:21;;;;;;;6.10;4.30;;;;;;;11.70;80.93;98081.03;79199;1301;3012919;-58
2023/04/13 08:38:54;;;;;;;10.20;5.00;;;;;;;11.63;81.55;98085.00;78073;1295;3069988;-57
2023/04/13 08:41:22;;;;;;;3.40;2.10;;;;;;;11.56;81.69;98083.95;79248;1301;3015070;-62
2023/04/13 08:43:50;;;;;;;4.80;3.20;;;;;;;12.07;80.30;98073.81;79234;1298;3012162;-60
2023/04/13 08:46:20;;;;;;;4.10;3.10;;;;;;;12.64;77.70;98069.75;77954;1301;3052978;-61
2023/04/13 08:48:51;;;;;;;5.20;3.90;;;;;;;12.95;75.92;98068.85;79236;1301;3012018;-61
2023/04/13 08:51:20;;;;;;;6.30;5.00;;;;;;;12.77;75.61;98073.30;78054;1298;3052915;-61
2023/04/13 08:53:52;;;;;;;6.70;4.20;;;;;;;12.41;77.04;98075.48;79187;1301;3011747;-61
2023/04/13 08:56:21;;;;;;;7.10;5.00;;;;;;;12.34;77.02;98075.42;78046;1298;3068635;-61
2023/04/13 08:58:51;;;;;;;6.00;3.90;;;;;;;12.17;77.41;98076.02;79226;1298;3014587;-62
2023/04/13 09:01:23;;;;;;;5.20;3.80;;;;;;;12.12;76.92;98071.28;77995;1298;3049023;-61
2023/04/13 09:03:52;;;;;;;5.50;4.20;;;;;;;11.93;77.68;98071.33;79260;1299;3015768;-61
2023/04/13 09:06:31;;;;;;;2.70;2.00;;;;;;;11.85;78.04;98069.58;77975;1301;3051420;-59
2023/04/13 09:09:06;;;;;;;4.60;3.00;;;;;;;12.47;77.51;98065.49;78008;1301;3052932;-62
2023/04/13 09:11:33;;;;;;;4.00;2.50;;;;;;;12.73;76.11;98067.55;79201;1298;3011869;-61
2023/04/13 09:14:03;;;;;;;5.20;3.70;;;;;;;12.75;75.55;98066.48;78101;1300;3050704;-61
2023/04/13 09:16:37;;;;;;;5.70;4.10;;;;;;;12.73;75.99;98069.29;79239;1300;3018735;-61
2023/04/13 09:19:10;;;;;;;5.80;3.90;;;;;;;12.69;76.00;98069.67;77934;1301;3053898;-61
2023/04/13 09:21:38;;;;;;;7.00;5.00;;;;;;;12.64;75.98;98071.70;79217;1301;3013536;-62
2023/04/13 09:24:05;;;;;;;7.50;5.70;;;;;;;12.59;76.06;98072.84;79204;1301;3011999;-62
2023/04/13 09:26:43;;;;;;;9.00;5.20;;;;;;;12.41;77.38;98074.60;77953;1299;3068715;-61
2023/04/13 09:29:13;;;;;;;9.30;5.20;;;;;;;12.36;77.65;98076.00;78750;1297;3012258;-61
2023/04/13 09:31:41;;;;;;;8.50;5.10;;;;;;;12.32;76.96;98074.74;79196;1298;3013233;-63
2023/04/13 09:34:10;;;;;;;3.90;2.80;;;;;;;12.32;77.12;98071.75;78661;1298;3011989;-61
2023/04/13 09:36:40;;;;;;;4.30;3.10;;;;;;;12.90;75.82;98069.13;79265;1298;3011805;-61
2023/04/13 09:39:08;;;;;;;6.90;3.40;;;;;;;13.51;73.82;98063.83;78052;1298;3026794;-62
2023/04/13 09:41:36;;;;;;;6.80;3.70;;;;;;;13.62;72.72;98067.91;79232;1301;3013558;-61
2023/04/13 09:44:34;;;;;;;5.60;4.10;;;;;;;13.53;72.53;98068.33;79241;1301;3011482;-62
2023/04/13 09:47:03;;;;;;;8.30;4.90;;;;;;;13.36;72.86;98063.33;77974;1299;3068796;-62
2023/04/13 09:49:38;;;;;;;8.50;4.70;;;;;;;13.23;73.29;98063.05;79237;1299;3013338;-61
2023/04/13 09:52:23;;;;;;;8.00;5.40;;;;;;;13.16;73.55;98070.38;77982;1301;3056922;-63
2023/04/13 09:54:52;;;;;;;6.10;4.70;;;;;;;12.73;75.16;98075.62;78312;1301;3050059;-61
2023/04/13 09:57:29;;;;;;;8.90;4.90;;;;;;;12.41;76.96;98078.61;79246;1299;3013797;-62
2023/04/13 09:59:59;;;;;;;9.30;5.60;;;;;;;12.39;77.70;98073.43;77962;1301;3052496;-60
2023/04/13 10:02:26;;;;;;;6.50;2.80;;;;;;;12.27;78.16;98080.25;79187;1301;3011451;-61
2023/04/13 10:04:56;;;;;;;5.30;3.40;;;;;;;12.77;76.67;98079.63;78623;1301;3012821;-61
2023/04/13 10:07:27;;;;;;;12.00;4.90;;;;;;;13.45;74.67;98083.17;79192;1298;3013688;-61
2023/04/13 10:09:56;;;;;;;9.10;5.50;;;;;;;13.19;74.50;98085.21;78003;1301;3048995;-60
2023/04/13 10:12:23;;;;;;;7.80;6.00;;;;;;;13.19;74.56;98091.88;79142;1298;3013533;-61
2023/04/13 10:14:50;;;;;;;9.20;6.30;;;;;;;13.21;74.67;98091.23;79165;1304;3011691;-61
2023/04/13 10:17:55;;;;;;;7.50;5.00;;;;;;;13.07;74.66;98089.33;78080;1298;3053567;-61
2023/04/13 10:20:23;;;;;;;;;;;;;;;12.89;75.15;98091.89;77787;1298;3067358;-61
2023/04/13 10:22:51;;;;;;;7.40;5.80;;;;;;;12.64;76.60;98089.25;79272;1298;3013470;-61
2023/04/13 10:25:18;;;;;;;10.20;5.90;;;;;;;12.47;77.15;98092.17;79419;1299;3013641;-62
2023/04/13 10:27:59;;;;;;;7.60;5.10;;;;;;;12.25;77.66;98093.58;78318;1300;3053209;-62
2023/04/13 10:30:28;;;;;;;5.70;4.10;;;;;;;12.31;77.56;98092.03;78121;1301;3050422;-62
2023/04/13 10:33:08;;;;;;;5.60;2.70;;;;;;;12.38;76.65;98090.87;79267;1301;3013256;-61
2023/04/13 10:35:36;;;;;;;4.60;3.10;;;;;;;12.98;74.97;98089.96;78006;1298;3068524;-61
2023/04/13 10:38:10;;;;;;;5.50;4.10;;;;;;;13.58;73.83;98090.07;79341;1301;3011631;-61
2023/04/13 10:40:46;;;;;;;6.90;5.10;;;;;;;13.67;72.92;98098.89;77986;1299;3055840;-61
2023/04/13 10:43:28;;;;;;;7.60;5.80;;;;;;;13.22;73.67;98105.32;78716;1298;3013159;-62
2023/04/13 10:46:12;;;;;;;6.90;5.30;;;;;;;12.97;75.07;98105.52;77989;1301;3049711;-61
2023/04/13 10:48:41;;;;;;;6.60;5.00;;;;;;;12.68;76.12;98105.42;78116;1300;3053280;-60
2023/04/13 10:51:12;;;;;;;9.60;6.10;;;;;;;12.68;76.16;98105.90;79145;1298;3011697;-60
2023/04/13 10:53:41;;;;;;;8.50;5.00;;;;;;;12.62;76.26;98104.92;77984;1300;3052690;-62
2023/04/13 10:56:18;;;;;;;6.80;5.40;;;;;;;12.57;75.93;98106.32;79310;1301;3013030;-60
2023/04/13 10:58:52;;;;;;;7.60;5.50;;;;;;;12.48;76.47;98105.80;77973;1297;3051313;-61
2023/04/13 11:01:22;;;;;;;3.90;2.60;;;;;;;12.33;77.30;98106.36;78685;1297;3012134;-61
2023/04/13 11:03:50;;;;;;;4.60;3.40;;;;;;;12.80;76.48;98098.33;79428;1302;3013567;-61
2023/04/13 11:06:21;;;;;;;7.60;4.20;;;;;;;13.40;74.91;98101.11;78907;1299;3011327;-60
2023/04/13 11:08:48;;;;;;;5.30;4.50;;;;;;;13.39;74.08;98105.91;79262;1301;3013863;-61
2023/04/13 11:11:23;;;;;;;6.60;4.70;;;;;;;13.27;74.08;98107.54;79093;1298;3013650;-61
2023/04/13 11:13:52;;;;;;;5.40;4.60;;;;;;;13.03;74.92;98110.03;76102;1301;3053295;-61
2023/04/13 11:16:18;;;;;;;5.40;4.50;;;;;;;12.99;74.91;98106.27;79350;1301;3019257;-61
2023/04/13 11:18:45;;;;;;;6.80;5.30;;;;;;;12.87;75.27;98103.98;79204;1300;3011774;-62
2023/04/13 11:21:14;;;;;;;7.20;5.40;;;;;;;12.77;75.23;98104.55;78108;1299;3026564;-61
2023/04/13 11:23:49;;;;;;;7.60;5.20;;;;;;;12.68;75.87;98106.64;79205;1299;3011510;-60
2023/04/13 11:26:18;;;;;;;7.00;5.40;;;;;;;12.60;75.96;98104.39;78072;1300;3050921;-61
2023/04/13 11:28:49;;;;;;;3.80;2.70;;;;;;;12.54;76.90;98099.58;79221;1298;3011708;-61
2023/04/13 11:31:17;;;;;;;3.60;2.80;;;;;;;13.02;76.18;98097.18;78160;1299;3052386;-60
2023/04/13 11:33:47;;;;;;;5.30;3.60;;;;;;;13.80;74.01;98094.16;79223;1299;3013011;-61